Moore, Texas
Current Conditions -  °F | °C
As of 10:15 AM on Thursday 29 Jan 2015 (Local Time) from KCVB Reporting Station
Overcast Overcast  
Wind Chill: 58°   Ceiling: 600
Heat Index: 58°   Visibility: 10mi
Dew Point: 58°   Wind: 3mph
Humidity: 100%   Direction: 190°S
Pressure: 30.27"   Gusts: NA
Location:  29.06°N, 99.01°W
Report Text: KCVB 291615Z AUTO 19003KT 10SM OVC006 15/15 A3027 RMK AO2 T01470147
Loading
Personal Weather Stations






























Interactive Weather Map New forecast layout! Learn more

10-Day Weather Forecast

Advertisements
Track Severe Weather on mobile